sensor_id;sensor_type;location;lat;lon;timestamp;P1;durP1;ratioP1;P2;durP2;ratioP2
357;SDS011;167;47.558;7.602;2023-05-24T00:01:12;9.47;;;8.57;;
357;SDS011;167;47.558;7.602;2023-05-24T00:03:38;9.33;;;8.53;;
357;SDS011;167;47.558;7.602;2023-05-24T00:06:04;10.83;;;9.60;;
357;SDS011;167;47.558;7.602;2023-05-24T00:08:31;9.93;;;9.00;;
357;SDS011;167;47.558;7.602;2023-05-24T00:10:57;9.47;;;8.60;;
357;SDS011;167;47.558;7.602;2023-05-24T00:13:23;9.30;;;8.40;;
357;SDS011;167;47.558;7.602;2023-05-24T00:15:49;8.57;;;7.87;;
357;SDS011;167;47.558;7.602;2023-05-24T00:18:15;11.70;;;9.30;;
357;SDS011;167;47.558;7.602;2023-05-24T00:20:42;8.97;;;8.17;;
357;SDS011;167;47.558;7.602;2023-05-24T00:23:08;10.33;;;9.40;;
357;SDS011;167;47.558;7.602;2023-05-24T00:25:34;9.10;;;8.20;;
357;SDS011;167;47.558;7.602;2023-05-24T00:28:00;7.43;;;6.73;;
357;SDS011;167;47.558;7.602;2023-05-24T00:30:26;9.00;;;8.20;;
357;SDS011;167;47.558;7.602;2023-05-24T00:32:52;9.73;;;7.97;;
357;SDS011;167;47.558;7.602;2023-05-24T00:35:18;9.43;;;8.63;;
357;SDS011;167;47.558;7.602;2023-05-24T00:37:44;8.53;;;7.70;;
357;SDS011;167;47.558;7.602;2023-05-24T00:40:10;7.13;;;6.63;;
357;SDS011;167;47.558;7.602;2023-05-24T00:42:37;8.73;;;7.93;;
357;SDS011;167;47.558;7.602;2023-05-24T00:45:03;8.50;;;7.70;;
357;SDS011;167;47.558;7.602;2023-05-24T00:47:29;8.17;;;7.47;;
357;SDS011;167;47.558;7.602;2023-05-24T00:49:55;7.90;;;7.40;;
357;SDS011;167;47.558;7.602;2023-05-24T00:52:21;8.90;;;8.10;;
357;SDS011;167;47.558;7.602;2023-05-24T00:54:47;7.53;;;7.00;;
357;SDS011;167;47.558;7.602;2023-05-24T00:57:13;9.10;;;8.30;;
357;SDS011;167;47.558;7.602;2023-05-24T00:59:39;8.30;;;7.67;;
357;SDS011;167;47.558;7.602;2023-05-24T01:02:06;8.47;;;6.30;;
357;SDS011;167;47.558;7.602;2023-05-24T01:04:31;7.17;;;6.57;;
357;SDS011;167;47.558;7.602;2023-05-24T01:07:02;7.30;;;6.60;;
357;SDS011;167;47.558;7.602;2023-05-24T01:09:33;7.93;;;7.27;;
357;SDS011;167;47.558;7.602;2023-05-24T01:17:18;6.90;;;6.30;;
357;SDS011;167;47.558;7.602;2023-05-24T01:24:51;6.87;;;6.37;;
357;SDS011;167;47.558;7.602;2023-05-24T01:27:18;5.97;;;5.47;;
357;SDS011;167;47.558;7.602;2023-05-24T01:29:45;8.00;;;6.10;;
357;SDS011;167;47.558;7.602;2023-05-24T01:32:17;6.47;;;5.97;;
357;SDS011;167;47.558;7.602;2023-05-24T01:34:43;6.60;;;6.10;;
357;SDS011;167;47.558;7.602;2023-05-24T01:37:09;6.97;;;6.37;;
357;SDS011;167;47.558;7.602;2023-05-24T01:39:35;5.37;;;4.97;;
357;SDS011;167;47.558;7.602;2023-05-24T01:42:10;5.77;;;5.17;;
357;SDS011;167;47.558;7.602;2023-05-24T01:47:11;5.90;;;5.40;;
357;SDS011;167;47.558;7.602;2023-05-24T01:49:42;6.63;;;5.30;;
357;SDS011;167;47.558;7.602;2023-05-24T01:52:14;5.93;;;5.43;;
357;SDS011;167;47.558;7.602;2023-05-24T01:54:42;5.77;;;5.37;;
357;SDS011;167;47.558;7.602;2023-05-24T01:57:09;6.20;;;5.60;;
357;SDS011;167;47.558;7.602;2023-05-24T01:59:35;6.17;;;5.53;;
357;SDS011;167;47.558;7.602;2023-05-24T02:02:04;6.20;;;5.60;;
357;SDS011;167;47.558;7.602;2023-05-24T02:04:30;5.10;;;4.70;;
357;SDS011;167;47.558;7.602;2023-05-24T02:06:56;5.53;;;5.13;;
357;SDS011;167;47.558;7.602;2023-05-24T02:09:22;7.10;;;5.60;;
357;SDS011;167;47.558;7.602;2023-05-24T02:11:48;5.23;;;4.73;;
357;SDS011;167;47.558;7.602;2023-05-24T02:14:14;5.93;;;5.43;;
357;SDS011;167;47.558;7.602;2023-05-24T02:16:41;6.03;;;5.43;;
357;SDS011;167;47.558;7.602;2023-05-24T02:19:10;4.90;;;4.60;;
357;SDS011;167;47.558;7.602;2023-05-24T02:21:36;6.80;;;6.10;;
357;SDS011;167;47.558;7.602;2023-05-24T02:24:02;5.77;;;5.43;;
357;SDS011;167;47.558;7.602;2023-05-24T02:26:28;5.63;;;5.23;;
357;SDS011;167;47.558;7.602;2023-05-24T02:28:54;4.83;;;4.40;;
357;SDS011;167;47.558;7.602;2023-05-24T02:31:20;6.27;;;5.20;;
357;SDS011;167;47.558;7.602;2023-05-24T02:33:46;5.73;;;5.23;;
357;SDS011;167;47.558;7.602;2023-05-24T02:36:12;6.47;;;5.87;;
357;SDS011;167;47.558;7.602;2023-05-24T02:38:38;9.70;;;6.23;;
357;SDS011;167;47.558;7.602;2023-05-24T02:41:04;6.00;;;5.40;;
357;SDS011;167;47.558;7.602;2023-05-24T02:43:30;5.60;;;5.20;;
357;SDS011;167;47.558;7.602;2023-05-24T02:45:56;5.73;;;5.23;;
357;SDS011;167;47.558;7.602;2023-05-24T02:48:22;5.70;;;5.30;;
357;SDS011;167;47.558;7.602;2023-05-24T02:50:48;6.60;;;5.60;;
357;SDS011;167;47.558;7.602;2023-05-24T02:53:14;6.17;;;5.27;;
357;SDS011;167;47.558;7.602;2023-05-24T02:55:40;5.47;;;4.93;;
357;SDS011;167;47.558;7.602;2023-05-24T02:58:08;6.23;;;4.77;;
357;SDS011;167;47.558;7.602;2023-05-24T03:00:33;5.80;;;5.30;;
357;SDS011;167;47.558;7.602;2023-05-24T03:03:00;5.93;;;5.43;;
357;SDS011;167;47.558;7.602;2023-05-24T03:05:27;5.30;;;4.90;;
357;SDS011;167;47.558;7.602;2023-05-24T03:07:53;5.27;;;4.87;;
357;SDS011;167;47.558;7.602;2023-05-24T03:10:19;5.47;;;5.07;;
357;SDS011;167;47.558;7.602;2023-05-24T03:12:45;5.37;;;4.97;;
357;SDS011;167;47.558;7.602;2023-05-24T03:15:11;5.70;;;5.20;;
357;SDS011;167;47.558;7.602;2023-05-24T03:17:37;6.20;;;5.60;;
357;SDS011;167;47.558;7.602;2023-05-24T03:20:03;5.50;;;5.00;;
357;SDS011;167;47.558;7.602;2023-05-24T03:22:29;5.90;;;5.43;;
357;SDS011;167;47.558;7.602;2023-05-24T03:24:55;6.03;;;5.20;;
357;SDS011;167;47.558;7.602;2023-05-24T03:27:22;5.57;;;5.17;;
357;SDS011;167;47.558;7.602;2023-05-24T03:29:48;5.10;;;4.70;;
357;SDS011;167;47.558;7.602;2023-05-24T03:32:14;7.03;;;5.07;;
357;SDS011;167;47.558;7.602;2023-05-24T03:34:40;5.43;;;5.03;;
357;SDS011;167;47.558;7.602;2023-05-24T03:37:06;5.83;;;5.20;;
357;SDS011;167;47.558;7.602;2023-05-24T03:39:31;4.63;;;4.23;;
357;SDS011;167;47.558;7.602;2023-05-24T03:41:57;5.67;;;5.17;;
357;SDS011;167;47.558;7.602;2023-05-24T03:44:24;4.93;;;4.53;;
357;SDS011;167;47.558;7.602;2023-05-24T03:46:50;5.60;;;5.10;;
357;SDS011;167;47.558;7.602;2023-05-24T03:49:16;4.00;;;3.70;;
357;SDS011;167;47.558;7.602;2023-05-24T03:51:42;4.93;;;4.60;;
357;SDS011;167;47.558;7.602;2023-05-24T03:54:08;5.50;;;4.77;;
357;SDS011;167;47.558;7.602;2023-05-24T03:56:34;4.80;;;4.40;;
357;SDS011;167;47.558;7.602;2023-05-24T03:59:00;5.00;;;4.60;;
357;SDS011;167;47.558;7.602;2023-05-24T04:01:27;5.07;;;4.57;;
357;SDS011;167;47.558;7.602;2023-05-24T04:03:55;6.53;;;4.83;;
357;SDS011;167;47.558;7.602;2023-05-24T04:06:21;5.60;;;5.10;;
357;SDS011;167;47.558;7.602;2023-05-24T04:08:53;5.20;;;4.83;;
357;SDS011;167;47.558;7.602;2023-05-24T04:11:19;5.47;;;4.67;;
357;SDS011;167;47.558;7.602;2023-05-24T04:13:46;6.23;;;4.13;;
357;SDS011;167;47.558;7.602;2023-05-24T04:16:12;5.30;;;4.80;;
357;SDS011;167;47.558;7.602;2023-05-24T04:18:38;5.03;;;4.63;;
357;SDS011;167;47.558;7.602;2023-05-24T04:21:04;5.23;;;4.83;;
357;SDS011;167;47.558;7.602;2023-05-24T04:23:30;5.30;;;4.87;;
357;SDS011;167;47.558;7.602;2023-05-24T04:25:56;7.37;;;4.00;;
357;SDS011;167;47.558;7.602;2023-05-24T04:28:22;4.40;;;3.97;;
357;SDS011;167;47.558;7.602;2023-05-24T04:30:50;7.20;;;4.20;;
357;SDS011;167;47.558;7.602;2023-05-24T04:33:16;6.23;;;4.47;;
357;SDS011;167;47.558;7.602;2023-05-24T04:35:42;4.87;;;4.37;;
357;SDS011;167;47.558;7.602;2023-05-24T04:38:09;7.63;;;4.23;;
357;SDS011;167;47.558;7.602;2023-05-24T04:40:36;4.47;;;4.13;;
357;SDS011;167;47.558;7.602;2023-05-24T04:43:02;4.40;;;4.10;;
357;SDS011;167;47.558;7.602;2023-05-24T04:45:31;5.53;;;5.03;;
357;SDS011;167;47.558;7.602;2023-05-24T04:47:57;7.03;;;4.33;;
357;SDS011;167;47.558;7.602;2023-05-24T04:50:23;4.30;;;4.00;;
357;SDS011;167;47.558;7.602;2023-05-24T04:52:49;4.10;;;3.80;;
357;SDS011;167;47.558;7.602;2023-05-24T04:55:15;4.80;;;4.40;;
357;SDS011;167;47.558;7.602;2023-05-24T04:57:41;5.03;;;4.70;;
357;SDS011;167;47.558;7.602;2023-05-24T05:00:07;4.37;;;4.07;;
357;SDS011;167;47.558;7.602;2023-05-24T05:02:34;4.40;;;4.00;;
357;SDS011;167;47.558;7.602;2023-05-24T05:05:00;5.50;;;4.53;;
357;SDS011;167;47.558;7.602;2023-05-24T05:07:26;5.17;;;4.70;;
357;SDS011;167;47.558;7.602;2023-05-24T05:09:52;5.90;;;4.60;;
357;SDS011;167;47.558;7.602;2023-05-24T05:12:18;4.20;;;3.87;;
357;SDS011;167;47.558;7.602;2023-05-24T05:14:44;5.87;;;3.73;;
357;SDS011;167;47.558;7.602;2023-05-24T05:17:10;4.50;;;4.10;;
357;SDS011;167;47.558;7.602;2023-05-24T05:19:37;3.90;;;3.60;;
357;SDS011;167;47.558;7.602;2023-05-24T05:22:03;4.67;;;4.23;;
357;SDS011;167;47.558;7.602;2023-05-24T05:24:29;4.43;;;4.03;;
357;SDS011;167;47.558;7.602;2023-05-24T05:26:55;5.43;;;4.13;;
357;SDS011;167;47.558;7.602;2023-05-24T05:29:21;4.63;;;4.20;;
357;SDS011;167;47.558;7.602;2023-05-24T05:31:47;5.60;;;4.27;;
357;SDS011;167;47.558;7.602;2023-05-24T05:34:13;6.80;;;3.90;;
357;SDS011;167;47.558;7.602;2023-05-24T05:36:39;5.27;;;4.20;;
357;SDS011;167;47.558;7.602;2023-05-24T05:39:06;4.67;;;3.77;;
357;SDS011;167;47.558;7.602;2023-05-24T05:41:36;7.13;;;4.27;;
357;SDS011;167;47.558;7.602;2023-05-24T05:44:02;3.70;;;3.50;;
357;SDS011;167;47.558;7.602;2023-05-24T05:46:28;7.10;;;3.70;;
357;SDS011;167;47.558;7.602;2023-05-24T05:48:54;4.23;;;3.87;;
357;SDS011;167;47.558;7.602;2023-05-24T05:51:20;6.90;;;3.83;;
357;SDS011;167;47.558;7.602;2023-05-24T05:53:46;6.47;;;4.20;;
357;SDS011;167;47.558;7.602;2023-05-24T05:56:12;3.87;;;3.57;;
357;SDS011;167;47.558;7.602;2023-05-24T05:58:37;3.90;;;3.60;;
357;SDS011;167;47.558;7.602;2023-05-24T06:01:03;4.73;;;4.33;;
357;SDS011;167;47.558;7.602;2023-05-24T06:03:29;4.23;;;3.70;;
357;SDS011;167;47.558;7.602;2023-05-24T06:05:55;4.43;;;4.13;;
357;SDS011;167;47.558;7.602;2023-05-24T06:08:21;4.80;;;4.40;;
357;SDS011;167;47.558;7.602;2023-05-24T06:10:47;7.43;;;5.37;;
357;SDS011;167;47.558;7.602;2023-05-24T06:13:13;4.57;;;4.10;;
357;SDS011;167;47.558;7.602;2023-05-24T06:15:39;4.90;;;3.93;;
357;SDS011;167;47.558;7.602;2023-05-24T06:18:05;7.20;;;4.13;;
357;SDS011;167;47.558;7.602;2023-05-24T06:20:31;3.60;;;3.30;;
357;SDS011;167;47.558;7.602;2023-05-24T06:22:57;6.33;;;4.77;;
357;SDS011;167;47.558;7.602;2023-05-24T06:25:23;5.00;;;4.60;;
357;SDS011;167;47.558;7.602;2023-05-24T06:27:51;4.97;;;4.07;;
357;SDS011;167;47.558;7.602;2023-05-24T06:30:17;4.47;;;4.07;;
357;SDS011;167;47.558;7.602;2023-05-24T06:32:43;4.60;;;4.20;;
357;SDS011;167;47.558;7.602;2023-05-24T06:35:09;4.10;;;3.80;;
357;SDS011;167;47.558;7.602;2023-05-24T06:37:35;4.77;;;4.37;;
357;SDS011;167;47.558;7.602;2023-05-24T06:40:02;4.40;;;4.10;;
357;SDS011;167;47.558;7.602;2023-05-24T06:42:30;4.43;;;4.03;;
357;SDS011;167;47.558;7.602;2023-05-24T06:44:56;4.90;;;4.50;;
357;SDS011;167;47.558;7.602;2023-05-24T06:47:22;4.67;;;4.27;;
357;SDS011;167;47.558;7.602;2023-05-24T06:49:48;4.80;;;3.60;;
357;SDS011;167;47.558;7.602;2023-05-24T06:52:14;6.07;;;4.47;;
357;SDS011;167;47.558;7.602;2023-05-24T06:54:40;4.40;;;4.00;;
357;SDS011;167;47.558;7.602;2023-05-24T06:57:06;5.83;;;4.13;;
357;SDS011;167;47.558;7.602;2023-05-24T06:59:32;4.37;;;3.97;;
357;SDS011;167;47.558;7.602;2023-05-24T07:01:58;4.47;;;4.13;;
357;SDS011;167;47.558;7.602;2023-05-24T07:04:25;4.40;;;3.73;;
357;SDS011;167;47.558;7.602;2023-05-24T07:06:52;10.57;;;4.47;;
357;SDS011;167;47.558;7.602;2023-05-24T07:09:18;4.60;;;4.23;;
357;SDS011;167;47.558;7.602;2023-05-24T07:11:44;4.30;;;3.83;;
357;SDS011;167;47.558;7.602;2023-05-24T07:14:10;4.70;;;4.30;;
357;SDS011;167;47.558;7.602;2023-05-24T07:16:36;6.93;;;4.20;;
357;SDS011;167;47.558;7.602;2023-05-24T07:19:02;4.90;;;4.13;;
357;SDS011;167;47.558;7.602;2023-05-24T07:21:28;4.33;;;4.00;;
357;SDS011;167;47.558;7.602;2023-05-24T07:23:54;4.10;;;3.80;;
357;SDS011;167;47.558;7.602;2023-05-24T07:26:20;4.30;;;4.00;;
357;SDS011;167;47.558;7.602;2023-05-24T07:28:46;6.37;;;4.60;;
357;SDS011;167;47.558;7.602;2023-05-24T07:31:12;5.77;;;4.43;;
357;SDS011;167;47.558;7.602;2023-05-24T07:33:38;5.73;;;4.53;;
357;SDS011;167;47.558;7.602;2023-05-24T07:36:04;7.63;;;4.50;;
357;SDS011;167;47.558;7.602;2023-05-24T07:38:31;7.33;;;4.63;;
357;SDS011;167;47.558;7.602;2023-05-24T07:40:58;7.30;;;4.70;;
357;SDS011;167;47.558;7.602;2023-05-24T07:43:25;5.30;;;4.07;;
357;SDS011;167;47.558;7.602;2023-05-24T07:45:51;5.50;;;4.67;;
357;SDS011;167;47.558;7.602;2023-05-24T07:48:18;7.73;;;4.67;;
357;SDS011;167;47.558;7.602;2023-05-24T07:50:44;5.00;;;4.60;;
357;SDS011;167;47.558;7.602;2023-05-24T07:53:12;4.20;;;3.87;;
357;SDS011;167;47.558;7.602;2023-05-24T07:55:38;7.30;;;4.10;;
357;SDS011;167;47.558;7.602;2023-05-24T07:58:04;7.17;;;4.30;;
357;SDS011;167;47.558;7.602;2023-05-24T08:00:30;4.87;;;4.40;;
357;SDS011;167;47.558;7.602;2023-05-24T08:02:57;6.10;;;4.67;;
357;SDS011;167;47.558;7.602;2023-05-24T08:05:23;5.77;;;4.40;;
357;SDS011;167;47.558;7.602;2023-05-24T08:07:49;5.67;;;4.50;;
357;SDS011;167;47.558;7.602;2023-05-24T08:10:16;8.10;;;3.90;;
357;SDS011;167;47.558;7.602;2023-05-24T08:12:42;6.87;;;4.60;;
357;SDS011;167;47.558;7.602;2023-05-24T08:15:08;4.90;;;4.50;;
357;SDS011;167;47.558;7.602;2023-05-24T08:17:35;8.50;;;4.90;;
357;SDS011;167;47.558;7.602;2023-05-24T08:20:01;6.33;;;4.57;;
357;SDS011;167;47.558;7.602;2023-05-24T08:22:30;4.47;;;3.97;;
357;SDS011;167;47.558;7.602;2023-05-24T08:24:56;4.83;;;4.27;;
357;SDS011;167;47.558;7.602;2023-05-24T08:27:22;6.40;;;4.57;;
357;SDS011;167;47.558;7.602;2023-05-24T08:29:48;5.13;;;3.70;;
357;SDS011;167;47.558;7.602;2023-05-24T08:32:14;5.47;;;5.07;;
357;SDS011;167;47.558;7.602;2023-05-24T08:34:40;4.67;;;3.70;;
357;SDS011;167;47.558;7.602;2023-05-24T08:37:06;6.70;;;3.93;;
357;SDS011;167;47.558;7.602;2023-05-24T08:39:33;8.73;;;3.80;;
357;SDS011;167;47.558;7.602;2023-05-24T08:41:59;4.80;;;3.60;;
357;SDS011;167;47.558;7.602;2023-05-24T08:44:25;4.60;;;3.80;;
357;SDS011;167;47.558;7.602;2023-05-24T08:46:51;5.40;;;4.90;;
357;SDS011;167;47.558;7.602;2023-05-24T08:49:18;5.90;;;4.47;;
357;SDS011;167;47.558;7.602;2023-05-24T08:51:45;4.47;;;4.07;;
357;SDS011;167;47.558;7.602;2023-05-24T08:54:11;5.03;;;4.50;;
357;SDS011;167;47.558;7.602;2023-05-24T08:56:38;10.10;;;4.50;;
357;SDS011;167;47.558;7.602;2023-05-24T08:59:05;4.80;;;4.40;;
357;SDS011;167;47.558;7.602;2023-05-24T09:01:31;7.60;;;5.77;;
357;SDS011;167;47.558;7.602;2023-05-24T09:03:58;7.20;;;4.70;;
357;SDS011;167;47.558;7.602;2023-05-24T09:06:24;5.70;;;4.43;;
357;SDS011;167;47.558;7.602;2023-05-24T09:08:51;4.93;;;4.50;;
357;SDS011;167;47.558;7.602;2023-05-24T09:11:18;5.80;;;4.53;;
357;SDS011;167;47.558;7.602;2023-05-24T09:13:44;6.53;;;4.30;;
357;SDS011;167;47.558;7.602;2023-05-24T09:16:11;6.13;;;4.10;;
357;SDS011;167;47.558;7.602;2023-05-24T09:18:38;4.87;;;4.40;;
357;SDS011;167;47.558;7.602;2023-05-24T09:21:06;9.00;;;4.90;;
357;SDS011;167;47.558;7.602;2023-05-24T09:23:32;5.83;;;5.03;;
357;SDS011;167;47.558;7.602;2023-05-24T09:25:58;7.10;;;5.17;;
357;SDS011;167;47.558;7.602;2023-05-24T09:28:31;5.63;;;5.13;;
357;SDS011;167;47.558;7.602;2023-05-24T09:30:58;10.40;;;5.07;;
357;SDS011;167;47.558;7.602;2023-05-24T09:33:27;10.60;;;4.80;;
357;SDS011;167;47.558;7.602;2023-05-24T09:35:58;6.37;;;5.43;;
357;SDS011;167;47.558;7.602;2023-05-24T09:38:24;6.43;;;4.70;;
357;SDS011;167;47.558;7.602;2023-05-24T09:41:06;5.30;;;4.53;;
357;SDS011;167;47.558;7.602;2023-05-24T09:43:33;4.57;;;3.83;;
357;SDS011;167;47.558;7.602;2023-05-24T09:46:03;7.33;;;4.80;;
357;SDS011;167;47.558;7.602;2023-05-24T09:48:29;4.80;;;4.17;;
357;SDS011;167;47.558;7.602;2023-05-24T09:50:56;5.70;;;5.03;;
357;SDS011;167;47.558;7.602;2023-05-24T09:53:23;5.40;;;4.90;;
357;SDS011;167;47.558;7.602;2023-05-24T09:55:49;5.77;;;5.20;;
357;SDS011;167;47.558;7.602;2023-05-24T09:58:15;5.20;;;4.00;;
357;SDS011;167;47.558;7.602;2023-05-24T10:00:42;8.43;;;5.17;;
357;SDS011;167;47.558;7.602;2023-05-24T10:03:09;8.60;;;4.50;;
357;SDS011;167;47.558;7.602;2023-05-24T10:05:36;8.83;;;4.87;;
357;SDS011;167;47.558;7.602;2023-05-24T10:08:02;7.60;;;4.40;;
357;SDS011;167;47.558;7.602;2023-05-24T10:10:33;4.73;;;4.13;;
357;SDS011;167;47.558;7.602;2023-05-24T10:12:59;8.83;;;4.40;;
357;SDS011;167;47.558;7.602;2023-05-24T10:15:25;5.73;;;4.10;;
357;SDS011;167;47.558;7.602;2023-05-24T10:17:55;4.80;;;4.40;;
357;SDS011;167;47.558;7.602;2023-05-24T10:20:22;7.57;;;4.40;;
357;SDS011;167;47.558;7.602;2023-05-24T10:22:52;4.80;;;4.30;;
357;SDS011;167;47.558;7.602;2023-05-24T10:25:21;6.30;;;4.40;;
357;SDS011;167;47.558;7.602;2023-05-24T10:27:50;6.20;;;4.70;;
357;SDS011;167;47.558;7.602;2023-05-24T10:30:25;4.50;;;4.10;;
357;SDS011;167;47.558;7.602;2023-05-24T10:32:54;7.90;;;5.50;;
357;SDS011;167;47.558;7.602;2023-05-24T10:35:21;4.53;;;4.10;;
357;SDS011;167;47.558;7.602;2023-05-24T10:37:48;4.13;;;3.80;;
357;SDS011;167;47.558;7.602;2023-05-24T10:40:15;5.50;;;5.00;;
357;SDS011;167;47.558;7.602;2023-05-24T10:42:42;5.67;;;5.00;;
357;SDS011;167;47.558;7.602;2023-05-24T10:45:28;6.10;;;5.07;;
357;SDS011;167;47.558;7.602;2023-05-24T10:50:35;6.47;;;4.00;;
357;SDS011;167;47.558;7.602;2023-05-24T10:55:58;6.20;;;4.53;;
357;SDS011;167;47.558;7.602;2023-05-24T10:58:26;4.90;;;4.37;;
357;SDS011;167;47.558;7.602;2023-05-24T11:00:54;9.20;;;4.97;;
357;SDS011;167;47.558;7.602;2023-05-24T11:03:21;4.53;;;3.90;;
357;SDS011;167;47.558;7.602;2023-05-24T11:08:33;7.00;;;4.07;;
357;SDS011;167;47.558;7.602;2023-05-24T11:13:29;3.87;;;3.57;;
357;SDS011;167;47.558;7.602;2023-05-24T11:15:55;4.90;;;4.10;;
357;SDS011;167;47.558;7.602;2023-05-24T11:18:22;11.63;;;4.17;;
357;SDS011;167;47.558;7.602;2023-05-24T11:20:48;5.00;;;4.50;;
357;SDS011;167;47.558;7.602;2023-05-24T11:23:14;5.87;;;4.10;;
357;SDS011;167;47.558;7.602;2023-05-24T11:25:41;8.30;;;4.60;;
357;SDS011;167;47.558;7.602;2023-05-24T11:28:10;7.67;;;4.37;;
357;SDS011;167;47.558;7.602;2023-05-24T11:30:40;6.40;;;4.30;;
357;SDS011;167;47.558;7.602;2023-05-24T11:35:47;5.30;;;3.87;;
357;SDS011;167;47.558;7.602;2023-05-24T11:38:14;4.77;;;3.73;;
357;SDS011;167;47.558;7.602;2023-05-24T11:40:41;3.97;;;3.57;;
357;SDS011;167;47.558;7.602;2023-05-24T11:43:17;5.03;;;4.00;;
357;SDS011;167;47.558;7.602;2023-05-24T11:45:44;4.67;;;4.27;;
357;SDS011;167;47.558;7.602;2023-05-24T11:48:12;7.50;;;4.13;;
357;SDS011;167;47.558;7.602;2023-05-24T11:50:38;6.43;;;4.80;;
357;SDS011;167;47.558;7.602;2023-05-24T11:53:05;5.30;;;4.40;;
357;SDS011;167;47.558;7.602;2023-05-24T11:55:31;10.50;;;3.90;;
357;SDS011;167;47.558;7.602;2023-05-24T11:57:57;4.57;;;4.17;;
357;SDS011;167;47.558;7.602;2023-05-24T12:00:24;6.07;;;4.40;;
357;SDS011;167;47.558;7.602;2023-05-24T12:02:50;4.87;;;4.10;;
357;SDS011;167;47.558;7.602;2023-05-24T12:05:17;4.37;;;3.53;;
357;SDS011;167;47.558;7.602;2023-05-24T12:07:43;5.57;;;4.73;;
357;SDS011;167;47.558;7.602;2023-05-24T12:10:13;5.50;;;4.30;;
357;SDS011;167;47.558;7.602;2023-05-24T12:12:42;5.27;;;4.03;;
357;SDS011;167;47.558;7.602;2023-05-24T12:15:09;6.33;;;4.13;;
357;SDS011;167;47.558;7.602;2023-05-24T12:17:35;4.80;;;4.20;;
357;SDS011;167;47.558;7.602;2023-05-24T12:20:02;5.00;;;4.50;;
357;SDS011;167;47.558;7.602;2023-05-24T12:22:30;5.30;;;4.20;;
357;SDS011;167;47.558;7.602;2023-05-24T12:24:56;4.97;;;4.47;;
357;SDS011;167;47.558;7.602;2023-05-24T12:27:28;4.97;;;4.50;;
357;SDS011;167;47.558;7.602;2023-05-24T12:30:04;5.93;;;3.90;;
357;SDS011;167;47.558;7.602;2023-05-24T12:32:31;4.13;;;3.57;;
357;SDS011;167;47.558;7.602;2023-05-24T12:34:57;4.47;;;3.70;;
357;SDS011;167;47.558;7.602;2023-05-24T12:37:23;4.80;;;4.27;;
357;SDS011;167;47.558;7.602;2023-05-24T12:39:49;7.70;;;4.00;;
357;SDS011;167;47.558;7.602;2023-05-24T12:42:15;9.33;;;4.20;;
357;SDS011;167;47.558;7.602;2023-05-24T12:44:41;4.97;;;3.90;;
357;SDS011;167;47.558;7.602;2023-05-24T12:47:08;4.37;;;3.97;;
357;SDS011;167;47.558;7.602;2023-05-24T12:49:35;4.60;;;4.20;;
357;SDS011;167;47.558;7.602;2023-05-24T12:52:01;3.93;;;3.60;;
357;SDS011;167;47.558;7.602;2023-05-24T12:54:27;3.67;;;3.33;;
357;SDS011;167;47.558;7.602;2023-05-24T12:56:54;4.40;;;4.00;;
357;SDS011;167;47.558;7.602;2023-05-24T12:59:20;4.33;;;3.93;;
357;SDS011;167;47.558;7.602;2023-05-24T13:01:46;4.40;;;3.80;;
357;SDS011;167;47.558;7.602;2023-05-24T13:04:16;4.40;;;4.10;;
357;SDS011;167;47.558;7.602;2023-05-24T13:06:42;4.47;;;4.03;;
357;SDS011;167;47.558;7.602;2023-05-24T13:09:08;6.73;;;5.00;;
357;SDS011;167;47.558;7.602;2023-05-24T13:11:35;5.57;;;5.17;;
357;SDS011;167;47.558;7.602;2023-05-24T13:14:01;6.10;;;5.07;;
357;SDS011;167;47.558;7.602;2023-05-24T13:16:27;7.43;;;6.50;;
357;SDS011;167;47.558;7.602;2023-05-24T13:18:54;6.90;;;5.97;;
357;SDS011;167;47.558;7.602;2023-05-24T13:21:20;9.50;;;6.00;;
357;SDS011;167;47.558;7.602;2023-05-24T13:23:46;6.63;;;6.03;;
357;SDS011;167;47.558;7.602;2023-05-24T13:26:12;10.97;;;6.33;;
357;SDS011;167;47.558;7.602;2023-05-24T13:28:38;12.30;;;5.93;;
357;SDS011;167;47.558;7.602;2023-05-24T13:31:04;13.80;;;7.00;;
357;SDS011;167;47.558;7.602;2023-05-24T13:33:30;8.93;;;7.17;;
357;SDS011;167;47.558;7.602;2023-05-24T13:35:56;7.10;;;6.40;;
357;SDS011;167;47.558;7.602;2023-05-24T13:38:22;9.80;;;6.67;;
357;SDS011;167;47.558;7.602;2023-05-24T13:40:49;7.30;;;5.97;;
357;SDS011;167;47.558;7.602;2023-05-24T13:43:15;9.13;;;5.57;;
357;SDS011;167;47.558;7.602;2023-05-24T13:45:42;7.80;;;5.53;;
357;SDS011;167;47.558;7.602;2023-05-24T13:48:08;7.83;;;6.17;;
357;SDS011;167;47.558;7.602;2023-05-24T13:50:34;9.53;;;6.13;;
357;SDS011;167;47.558;7.602;2023-05-24T13:53:00;7.63;;;6.93;;
357;SDS011;167;47.558;7.602;2023-05-24T13:55:27;9.67;;;5.93;;
357;SDS011;167;47.558;7.602;2023-05-24T13:57:54;11.33;;;5.90;;
357;SDS011;167;47.558;7.602;2023-05-24T14:00:21;7.47;;;5.87;;
357;SDS011;167;47.558;7.602;2023-05-24T14:02:47;8.77;;;6.17;;
357;SDS011;167;47.558;7.602;2023-05-24T14:05:13;7.53;;;5.50;;
357;SDS011;167;47.558;7.602;2023-05-24T14:07:39;7.97;;;6.10;;
357;SDS011;167;47.558;7.602;2023-05-24T14:10:05;6.70;;;6.20;;
357;SDS011;167;47.558;7.602;2023-05-24T14:12:32;6.50;;;5.90;;
357;SDS011;167;47.558;7.602;2023-05-24T14:14:58;7.43;;;5.90;;
357;SDS011;167;47.558;7.602;2023-05-24T14:17:24;8.40;;;5.40;;
357;SDS011;167;47.558;7.602;2023-05-24T14:19:50;9.20;;;5.60;;
357;SDS011;167;47.558;7.602;2023-05-24T14:22:16;8.80;;;6.80;;
357;SDS011;167;47.558;7.602;2023-05-24T14:24:42;7.77;;;6.00;;
357;SDS011;167;47.558;7.602;2023-05-24T14:27:07;6.10;;;5.57;;
357;SDS011;167;47.558;7.602;2023-05-24T14:29:33;12.43;;;5.50;;
357;SDS011;167;47.558;7.602;2023-05-24T14:32:00;5.20;;;4.63;;
357;SDS011;167;47.558;7.602;2023-05-24T14:34:26;9.33;;;5.20;;
357;SDS011;167;47.558;7.602;2023-05-24T14:36:52;6.67;;;6.03;;
357;SDS011;167;47.558;7.602;2023-05-24T14:39:18;12.97;;;5.13;;
357;SDS011;167;47.558;7.602;2023-05-24T14:41:44;7.43;;;5.40;;
357;SDS011;167;47.558;7.602;2023-05-24T14:44:10;6.50;;;5.80;;
357;SDS011;167;47.558;7.602;2023-05-24T14:46:36;13.80;;;6.50;;
357;SDS011;167;47.558;7.602;2023-05-24T14:49:02;8.67;;;6.27;;
357;SDS011;167;47.558;7.602;2023-05-24T14:51:28;6.07;;;5.50;;
357;SDS011;167;47.558;7.602;2023-05-24T14:53:54;8.80;;;5.67;;
357;SDS011;167;47.558;7.602;2023-05-24T14:56:20;6.67;;;5.87;;
357;SDS011;167;47.558;7.602;2023-05-24T14:58:46;7.20;;;5.63;;
357;SDS011;167;47.558;7.602;2023-05-24T15:01:12;5.43;;;5.00;;
357;SDS011;167;47.558;7.602;2023-05-24T15:03:38;5.33;;;4.93;;
357;SDS011;167;47.558;7.602;2023-05-24T15:06:04;6.37;;;5.87;;
357;SDS011;167;47.558;7.602;2023-05-24T15:08:32;6.50;;;6.00;;
357;SDS011;167;47.558;7.602;2023-05-24T15:10:58;6.03;;;5.43;;
357;SDS011;167;47.558;7.602;2023-05-24T15:13:24;6.93;;;6.33;;
357;SDS011;167;47.558;7.602;2023-05-24T15:15:50;6.87;;;6.17;;
357;SDS011;167;47.558;7.602;2023-05-24T15:18:21;6.17;;;5.60;;
357;SDS011;167;47.558;7.602;2023-05-24T15:20:49;6.00;;;5.30;;
357;SDS011;167;47.558;7.602;2023-05-24T15:23:15;5.47;;;5.00;;
357;SDS011;167;47.558;7.602;2023-05-24T15:25:41;6.33;;;5.80;;
357;SDS011;167;47.558;7.602;2023-05-24T15:28:07;5.60;;;5.20;;
357;SDS011;167;47.558;7.602;2023-05-24T15:30:36;9.00;;;5.00;;
357;SDS011;167;47.558;7.602;2023-05-24T15:33:02;5.30;;;4.80;;
357;SDS011;167;47.558;7.602;2023-05-24T15:35:28;7.53;;;5.27;;
357;SDS011;167;47.558;7.602;2023-05-24T15:37:54;6.37;;;5.77;;
357;SDS011;167;47.558;7.602;2023-05-24T15:40:20;5.83;;;5.43;;
357;SDS011;167;47.558;7.602;2023-05-24T15:42:47;7.00;;;5.43;;
357;SDS011;167;47.558;7.602;2023-05-24T15:45:14;5.50;;;5.03;;
357;SDS011;167;47.558;7.602;2023-05-24T15:47:40;6.87;;;6.30;;
357;SDS011;167;47.558;7.602;2023-05-24T15:50:06;7.00;;;5.40;;
357;SDS011;167;47.558;7.602;2023-05-24T15:52:33;6.33;;;5.73;;
357;SDS011;167;47.558;7.602;2023-05-24T15:54:59;5.30;;;4.90;;
357;SDS011;167;47.558;7.602;2023-05-24T15:57:25;7.20;;;5.60;;
357;SDS011;167;47.558;7.602;2023-05-24T15:59:51;5.10;;;4.70;;
357;SDS011;167;47.558;7.602;2023-05-24T16:02:17;5.93;;;5.53;;
357;SDS011;167;47.558;7.602;2023-05-24T16:04:43;5.67;;;5.23;;
357;SDS011;167;47.558;7.602;2023-05-24T16:07:09;7.13;;;5.40;;